createdAt,value
2023-06-20T00:01:19.970Z,95426.38
2023-06-20T00:03:48.038Z,95411.47
2023-06-20T00:06:16.077Z,95417.00
2023-06-20T00:08:44.171Z,95397.06
2023-06-20T00:11:13.619Z,95422.56
2023-06-20T00:13:44.308Z,95411.97
2023-06-20T00:16:12.868Z,95426.47
2023-06-20T00:18:41.471Z,95415.84
2023-06-20T00:21:09.475Z,95415.50
2023-06-20T00:23:37.568Z,95432.63
2023-06-20T00:26:05.548Z,95425.91
2023-06-20T00:28:35.022Z,95425.50
2023-06-20T00:31:03.212Z,95416.44
2023-06-20T00:33:31.241Z,95395.66
2023-06-20T00:35:59.205Z,95413.63
2023-06-20T00:38:30.605Z,95408.88
2023-06-20T00:40:58.703Z,95408.16
2023-06-20T00:43:26.902Z,95403.53
2023-06-20T00:45:57.747Z,95418.41
2023-06-20T00:48:25.977Z,95417.31
2023-06-20T00:50:55.268Z,95406.00
2023-06-20T00:53:23.396Z,95411.81
2023-06-20T00:55:52.078Z,95409.03
2023-06-20T00:58:20.093Z,95396.03
2023-06-20T01:00:48.233Z,95415.69
2023-06-20T01:03:17.826Z,95409.09
2023-06-20T01:05:53.488Z,95409.00
2023-06-20T01:08:28.172Z,95398.06
2023-06-20T01:11:03.738Z,95405.19
2023-06-20T01:13:48.300Z,95403.53
2023-06-20T01:16:22.877Z,95397.88
2023-06-20T01:19:00.056Z,95398.66
2023-06-20T01:21:35.423Z,95423.34
2023-06-20T01:24:11.847Z,95416.19
2023-06-20T01:26:46.380Z,95411.03
2023-06-20T01:29:18.215Z,95415.78
2023-06-20T01:31:52.895Z,95413.53
2023-06-20T01:34:41.899Z,95408.06
2023-06-20T01:37:14.814Z,95411.72
2023-06-20T01:39:47.456Z,95396.41
2023-06-20T01:42:17.900Z,95399.94
2023-06-20T01:44:47.713Z,95381.44
2023-06-20T01:47:18.360Z,95415.88
2023-06-20T01:49:50.206Z,95378.63
2023-06-20T01:52:22.309Z,95427.63
2023-06-20T01:54:52.514Z,95432.66
2023-06-20T01:57:22.248Z,95417.38
2023-06-20T01:59:51.727Z,95420.50
2023-06-20T02:02:21.545Z,95421.28
2023-06-20T02:04:50.898Z,95427.19
2023-06-20T02:07:20.298Z,95422.63
2023-06-20T02:09:48.804Z,95423.69
2023-06-20T02:12:18.994Z,95427.25
2023-06-20T02:14:49.722Z,95428.69
2023-06-20T02:17:18.437Z,95423.63
2023-06-20T02:19:46.591Z,95434.16
2023-06-20T02:22:16.746Z,95433.56
2023-06-20T02:24:46.302Z,95425.66
2023-06-20T02:27:17.616Z,95437.41
2023-06-20T02:29:52.067Z,95435.16
2023-06-20T02:32:21.677Z,95437.06
2023-06-20T02:34:50.683Z,95409.88
2023-06-20T02:37:18.751Z,95430.31
2023-06-20T02:39:46.848Z,95438.19
2023-06-20T02:42:14.952Z,95423.66
2023-06-20T02:44:43.041Z,95388.91
2023-06-20T02:47:21.433Z,95424.59
2023-06-20T02:50:00.687Z,95443.56
2023-06-20T02:52:40.372Z,95457.19
2023-06-20T02:55:14.128Z,95449.41
2023-06-20T02:57:46.959Z,95448.19
2023-06-20T03:00:17.485Z,95434.31
2023-06-20T03:02:52.491Z,95453.78
2023-06-20T03:05:21.619Z,95463.22
2023-06-20T03:07:53.286Z,95477.47
2023-06-20T03:10:22.124Z,95462.31
2023-06-20T03:12:50.252Z,95465.66
2023-06-20T03:15:18.265Z,95477.44
2023-06-20T03:17:49.631Z,95475.16
2023-06-20T03:20:18.081Z,95478.41
2023-06-20T03:22:46.095Z,95490.06
2023-06-20T03:25:14.140Z,95483.16
2023-06-20T03:27:42.150Z,95475.06
2023-06-20T03:30:12.080Z,95482.19
2023-06-20T03:32:41.576Z,95479.41
2023-06-20T03:35:11.278Z,95480.91
2023-06-20T03:37:39.432Z,95486.66
2023-06-20T03:40:08.969Z,95466.16
2023-06-20T03:42:36.968Z,95478.56
2023-06-20T03:45:05.416Z,95492.47
2023-06-20T03:47:34.395Z,95435.59
2023-06-20T03:50:02.528Z,95493.69
2023-06-20T03:52:31.971Z,95478.44
2023-06-20T03:55:00.047Z,95494.44
2023-06-20T03:57:28.008Z,95459.50
2023-06-20T03:59:56.349Z,95482.03
2023-06-20T04:02:24.388Z,95504.09
2023-06-20T04:04:52.405Z,95383.69
2023-06-20T04:07:20.827Z,95508.47
2023-06-20T04:09:50.845Z,95496.31
2023-06-20T04:12:19.169Z,95499.88
2023-06-20T04:14:47.185Z,95495.59
2023-06-20T04:17:15.267Z,95499.84
2023-06-20T04:19:43.803Z,95502.06
2023-06-20T04:22:13.565Z,95508.59
2023-06-20T04:24:41.687Z,95499.56
2023-06-20T04:27:11.870Z,95506.97
2023-06-20T04:29:40.290Z,95504.28
2023-06-20T04:32:08.614Z,95492.78
2023-06-20T04:34:36.672Z,95508.03
2023-06-20T04:37:05.134Z,95506.66
2023-06-20T04:39:33.187Z,95507.72
2023-06-20T04:42:01.231Z,95513.69
2023-06-20T04:44:30.545Z,95516.84
2023-06-20T04:46:58.676Z,95510.63
2023-06-20T04:49:27.152Z,95496.94
2023-06-20T04:51:55.202Z,95517.78
2023-06-20T04:54:23.257Z,95507.13
2023-06-20T04:56:51.335Z,95527.56
2023-06-20T04:59:19.406Z,95536.97
2023-06-20T05:01:52.224Z,95531.53
2023-06-20T05:04:20.590Z,95489.19
2023-06-20T05:06:48.637Z,95508.78
2023-06-20T05:09:16.954Z,95524.47
2023-06-20T05:11:44.985Z,95532.28
2023-06-20T05:14:12.996Z,95526.84
2023-06-20T05:16:41.096Z,95515.50
2023-06-20T05:19:10.503Z,95475.53
2023-06-20T05:21:38.522Z,95505.19
2023-06-20T05:24:07.010Z,95508.25
2023-06-20T05:26:35.055Z,95478.03
2023-06-20T05:29:04.776Z,95522.31
2023-06-20T05:31:32.904Z,95493.03
2023-06-20T05:34:01.362Z,95493.00
2023-06-20T05:36:31.162Z,95497.53
2023-06-20T05:38:59.871Z,95514.19
2023-06-20T05:41:28.083Z,95508.53
2023-06-20T05:43:56.101Z,95451.00
2023-06-20T05:46:24.248Z,95500.38
2023-06-20T05:48:53.230Z,95510.28
2023-06-20T05:51:21.250Z,95510.00
2023-06-20T05:53:50.615Z,95510.13
2023-06-20T05:56:18.817Z,95488.03
2023-06-20T05:58:46.952Z,95524.03
2023-06-20T06:01:15.444Z,95517.81
2023-06-20T06:03:43.564Z,95512.34
2023-06-20T06:06:11.966Z,95521.25
2023-06-20T06:08:42.006Z,95534.25
2023-06-20T06:11:11.766Z,95517.81
2023-06-20T06:13:40.863Z,95532.34
2023-06-20T06:16:08.867Z,95541.47
2023-06-20T06:18:37.097Z,95501.75
2023-06-20T06:21:05.380Z,95544.16
2023-06-20T06:23:33.516Z,95497.59
2023-06-20T06:26:01.742Z,95532.41
2023-06-20T06:28:31.736Z,95531.66
2023-06-20T06:31:01.389Z,95521.44
2023-06-20T06:33:30.928Z,95520.56
2023-06-20T06:36:00.584Z,95508.59
2023-06-20T06:38:29.081Z,95515.81
2023-06-20T06:40:58.013Z,95499.22
2023-06-20T06:43:26.141Z,95508.88
2023-06-20T06:45:55.932Z,95514.53
2023-06-20T06:48:24.155Z,95514.84
2023-06-20T06:50:52.821Z,95501.75
2023-06-20T06:53:21.153Z,95503.00
2023-06-20T06:55:49.469Z,95512.31
2023-06-20T06:58:17.601Z,95480.66
2023-06-20T07:00:45.651Z,95513.16
2023-06-20T07:03:16.460Z,95507.97
2023-06-20T07:05:44.701Z,95482.53
2023-06-20T07:08:12.769Z,95395.63
2023-06-20T07:10:40.806Z,95483.56
2023-06-20T07:13:08.941Z,95507.41
2023-06-20T07:15:36.982Z,95478.41
2023-06-20T07:18:05.220Z,95489.50
2023-06-20T07:20:34.676Z,95491.44
2023-06-20T07:23:02.740Z,95486.47
2023-06-20T07:25:30.758Z,95485.94
2023-06-20T07:27:58.905Z,95457.38
2023-06-20T07:30:26.977Z,95484.72
2023-06-20T07:32:55.165Z,95378.97
2023-06-20T07:35:25.718Z,95491.53
2023-06-20T07:37:55.352Z,95473.16
2023-06-20T07:40:23.338Z,95465.28
2023-06-20T07:42:51.464Z,95485.13
2023-06-20T07:45:19.633Z,95486.78
2023-06-20T07:47:47.657Z,95453.28
2023-06-20T07:50:16.294Z,95494.63
2023-06-20T07:52:44.814Z,95479.03
2023-06-20T07:55:25.023Z,95491.44
2023-06-20T07:57:58.149Z,95496.75
2023-06-20T08:00:26.833Z,95484.66
2023-06-20T08:02:55.303Z,95498.38
2023-06-20T08:05:23.823Z,95491.84
2023-06-20T08:07:52.053Z,95458.88
2023-06-20T08:10:21.514Z,95494.72
2023-06-20T08:12:49.637Z,95489.25
2023-06-20T08:15:17.689Z,95497.16
2023-06-20T08:17:45.810Z,95492.91
2023-06-20T08:20:14.071Z,95479.00
2023-06-20T08:22:42.108Z,95496.41
2023-06-20T08:25:10.972Z,95445.66
2023-06-20T08:27:40.462Z,95485.94
2023-06-20T08:30:09.730Z,95497.03
2023-06-20T08:32:40.443Z,95481.56
2023-06-20T08:35:10.883Z,95496.09
2023-06-20T08:37:39.319Z,95478.00
2023-06-20T08:40:10.694Z,95492.59
2023-06-20T08:42:42.037Z,95493.94
2023-06-20T08:45:11.421Z,95480.47
2023-06-20T08:47:39.560Z,95468.69
2023-06-20T08:50:09.044Z,95470.88
2023-06-20T08:52:47.057Z,95497.75
2023-06-20T08:55:16.317Z,95501.06
2023-06-20T08:57:47.591Z,95501.13
2023-06-20T09:00:18.752Z,95502.75
2023-06-20T09:02:46.846Z,95494.06
2023-06-20T09:05:14.937Z,95472.88
2023-06-20T09:07:44.076Z,95497.97
2023-06-20T09:10:15.283Z,95504.88
2023-06-20T09:12:49.836Z,95447.50
2023-06-20T09:15:20.229Z,95494.31
2023-06-20T09:17:52.522Z,95490.53
2023-06-20T09:20:20.943Z,95491.84
2023-06-20T09:22:49.088Z,95489.56
2023-06-20T09:25:22.591Z,95472.28
2023-06-20T09:27:52.997Z,95461.66
2023-06-20T09:30:23.509Z,95481.22
2023-06-20T09:32:53.755Z,95481.13
2023-06-20T09:35:22.843Z,95479.00
2023-06-20T09:37:53.873Z,95465.34
2023-06-20T09:40:22.598Z,95470.88
2023-06-20T09:42:58.539Z,95470.75
2023-06-20T09:45:26.789Z,95475.59
2023-06-20T09:47:58.196Z,95466.50
2023-06-20T09:50:30.833Z,95465.41
2023-06-20T09:53:04.863Z,95464.38
2023-06-20T09:55:36.133Z,95465.47
2023-06-20T09:58:06.723Z,95461.97
2023-06-20T10:00:38.059Z,95459.25
2023-06-20T10:03:10.749Z,95459.25
2023-06-20T10:05:39.644Z,95454.34
2023-06-20T10:08:08.684Z,95459.78
2023-06-20T10:10:36.685Z,95454.19
2023-06-20T10:13:07.348Z,95456.00
2023-06-20T10:15:36.225Z,95445.94
2023-06-20T10:18:04.996Z,95454.19
2023-06-20T10:20:35.937Z,95449.38
2023-06-20T10:23:06.850Z,95459.13
2023-06-20T10:25:36.047Z,95462.38
2023-06-20T10:28:07.265Z,95357.38
2023-06-20T10:31:05.318Z,95468.31
2023-06-20T10:33:38.099Z,95464.00
2023-06-20T10:36:08.234Z,95426.28
2023-06-20T10:38:38.932Z,95468.81
2023-06-20T10:41:15.547Z,95457.03
2023-06-20T10:43:53.137Z,95465.78
2023-06-20T10:46:23.768Z,95466.06
2023-06-20T10:48:52.425Z,95463.41
2023-06-20T10:51:20.511Z,95453.69
2023-06-20T10:53:48.563Z,95438.72
2023-06-20T10:56:27.225Z,95440.34
2023-06-20T10:58:56.707Z,95433.25
2023-06-20T11:01:29.284Z,95439.53
2023-06-20T11:03:58.375Z,95444.44
2023-06-20T11:06:27.501Z,95431.38
2023-06-20T11:08:56.349Z,95434.63
2023-06-20T11:11:34.778Z,95384.50
2023-06-20T11:14:14.170Z,95427.75
2023-06-20T11:16:42.993Z,95404.41
2023-06-20T11:19:26.365Z,95426.50
2023-06-20T11:22:02.474Z,95422.81
2023-06-20T11:24:32.662Z,95424.78
2023-06-20T11:27:13.014Z,95351.34
2023-06-20T11:29:42.510Z,95421.97
2023-06-20T11:32:11.663Z,95407.66
2023-06-20T11:35:00.796Z,95429.03
2023-06-20T11:37:29.191Z,95411.88
2023-06-20T11:39:57.649Z,95396.72
2023-06-20T11:42:25.706Z,95414.84
2023-06-20T11:44:55.057Z,95413.94
2023-06-20T11:47:23.246Z,95413.44
2023-06-20T11:49:58.221Z,95403.81
2023-06-20T11:52:30.751Z,95414.91
2023-06-20T11:55:00.363Z,95411.50
2023-06-20T11:57:29.552Z,95396.03
2023-06-20T12:00:06.871Z,95414.19
2023-06-20T12:02:39.431Z,95403.19
2023-06-20T12:05:08.001Z,95414.22
2023-06-20T12:07:49.886Z,95413.22
2023-06-20T12:10:19.470Z,95385.25
2023-06-20T12:12:48.270Z,95398.94
2023-06-20T12:15:17.659Z,95401.13
2023-06-20T12:17:45.779Z,95403.28
2023-06-20T12:20:32.211Z,95417.41
2023-06-20T12:23:01.977Z,95379.63
2023-06-20T12:25:29.961Z,95414.19
2023-06-20T12:27:58.738Z,95409.09
2023-06-20T12:30:28.383Z,95401.47
2023-06-20T12:32:58.802Z,95410.50
2023-06-20T12:35:26.984Z,95399.78
2023-06-20T12:37:55.224Z,95402.75
2023-06-20T12:40:23.518Z,95393.75
2023-06-20T12:42:51.712Z,95404.13
2023-06-20T12:45:19.862Z,95400.06
2023-06-20T12:47:50.272Z,95398.94
2023-06-20T12:50:18.514Z,95390.00
2023-06-20T12:52:46.717Z,95369.03
2023-06-20T12:55:15.130Z,95389.38
2023-06-20T12:57:43.332Z,95389.78
2023-06-20T13:00:12.464Z,95373.31
2023-06-20T13:02:41.411Z,95384.09
2023-06-20T13:05:11.061Z,95385.50
2023-06-20T13:07:39.247Z,95388.16
2023-06-20T13:10:08.546Z,95390.47
2023-06-20T13:12:36.957Z,95383.09
2023-06-20T13:15:08.100Z,95348.81
2023-06-20T13:17:38.368Z,95402.56
2023-06-20T13:20:08.018Z,95401.94
2023-06-20T13:22:37.529Z,95395.28
2023-06-20T13:25:05.997Z,95376.94
2023-06-20T13:27:34.087Z,95383.16
2023-06-20T13:30:02.126Z,95382.97
2023-06-20T13:32:30.326Z,95393.22
2023-06-20T13:34:58.488Z,95359.91
2023-06-20T13:37:26.770Z,95386.13
2023-06-20T13:39:56.725Z,95389.50
2023-06-20T13:42:24.822Z,95392.59
2023-06-20T13:44:52.868Z,95398.47
2023-06-20T13:47:21.080Z,95390.13
2023-06-20T13:49:49.182Z,95389.47
2023-06-20T13:52:17.463Z,95395.34
2023-06-20T13:54:45.437Z,95401.69
2023-06-20T13:57:14.887Z,95383.34
2023-06-20T13:59:44.687Z,95389.94
2023-06-20T14:02:13.181Z,95389.81
2023-06-20T14:04:41.257Z,95385.47
2023-06-20T14:07:09.322Z,95303.03
2023-06-20T14:09:37.313Z,95379.31
2023-06-20T14:12:06.120Z,95341.34
2023-06-20T14:14:35.689Z,95381.28
2023-06-20T14:17:03.957Z,95369.66
2023-06-20T14:19:33.592Z,95383.59
2023-06-20T14:22:01.822Z,95386.22
2023-06-20T14:24:30.061Z,95377.19
2023-06-20T14:26:59.666Z,95370.06
2023-06-20T14:29:27.680Z,95372.69
2023-06-20T14:31:57.003Z,95381.66
2023-06-20T14:34:25.028Z,95379.16
2023-06-20T14:36:53.913Z,95379.41
2023-06-20T14:39:24.677Z,95374.56
2023-06-20T14:41:52.959Z,95381.56
2023-06-20T14:44:20.978Z,95378.56
2023-06-20T14:46:49.053Z,95371.69
2023-06-20T14:49:19.918Z,95374.47
2023-06-20T14:51:49.508Z,95378.94
2023-06-20T14:54:17.627Z,95384.78
2023-06-20T14:56:49.568Z,95383.47
2023-06-20T14:59:18.078Z,95380.31
2023-06-20T15:01:46.300Z,95343.28
2023-06-20T15:04:15.295Z,95382.81
2023-06-20T15:06:44.862Z,95385.88
2023-06-20T15:09:12.936Z,95335.28
2023-06-20T15:11:41.022Z,95359.31
2023-06-20T15:14:09.031Z,95380.13
2023-06-20T15:16:38.768Z,95365.50
2023-06-20T15:21:53.740Z,95366.41
2023-06-20T15:24:22.112Z,95373.47
2023-06-20T15:26:50.127Z,95381.50
2023-06-20T15:29:21.450Z,95379.31
2023-06-20T15:31:49.609Z,95363.44
2023-06-20T15:34:17.708Z,95367.75
2023-06-20T15:36:45.750Z,95378.72
2023-06-20T15:39:17.072Z,95374.44
2023-06-20T15:41:48.072Z,95370.06
2023-06-20T15:44:16.150Z,95379.34
2023-06-20T15:46:53.075Z,95365.28
2023-06-20T15:49:23.702Z,95379.06
2023-06-20T15:51:51.741Z,95368.78
2023-06-20T15:54:21.972Z,95378.00
2023-06-20T15:56:51.105Z,95382.72
2023-06-20T15:59:19.396Z,95394.50
2023-06-20T16:01:47.596Z,95382.72
2023-06-20T16:04:15.857Z,95387.47
2023-06-20T16:06:43.948Z,95387.13
2023-06-20T16:09:12.108Z,95370.91
2023-06-20T16:11:41.644Z,95402.56
2023-06-20T16:14:09.871Z,95402.56
2023-06-20T16:16:37.976Z,95401.44
2023-06-20T16:19:06.099Z,95403.13
2023-06-20T16:21:35.081Z,95399.69
2023-06-20T16:24:03.668Z,95370.47
2023-06-20T16:26:32.304Z,95402.69
2023-06-20T16:29:01.758Z,95397.91
2023-06-20T16:31:30.088Z,95402.47
2023-06-20T16:33:58.252Z,95410.47
2023-06-20T16:36:26.241Z,95402.03
2023-06-20T16:38:54.518Z,95406.69
2023-06-20T16:41:23.643Z,95408.34
2023-06-20T16:43:51.698Z,95391.88
2023-06-20T16:46:21.329Z,95403.72
2023-06-20T16:48:50.305Z,95416.00
2023-06-20T16:51:18.395Z,95418.56
2023-06-20T16:53:46.426Z,95421.88
2023-06-20T16:56:14.479Z,95416.97
2023-06-20T16:58:42.507Z,95409.56
2023-06-20T17:01:12.264Z,95417.44
2023-06-20T17:03:41.746Z,95413.66
2023-06-20T17:06:09.762Z,95408.13
2023-06-20T17:08:37.864Z,95387.56
2023-06-20T17:11:06.056Z,95404.88
2023-06-20T17:13:34.083Z,95420.72
2023-06-20T17:16:02.073Z,95414.28
2023-06-20T17:18:30.321Z,95303.47
2023-06-20T17:21:00.477Z,95412.88
2023-06-20T17:23:28.475Z,95399.09
2023-06-20T17:25:56.454Z,95420.81
2023-06-20T17:28:24.556Z,95415.47
2023-06-20T17:30:52.736Z,95418.31
2023-06-20T17:33:20.771Z,95403.88
2023-06-20T17:35:48.773Z,95400.22
2023-06-20T17:38:18.246Z,95430.75
2023-06-20T17:40:46.234Z,95423.59
2023-06-20T17:43:14.322Z,95423.59
2023-06-20T17:45:42.465Z,95423.72
2023-06-20T17:48:10.864Z,95429.16
2023-06-20T17:50:39.299Z,95422.94
2023-06-20T17:53:07.410Z,95434.69
2023-06-20T17:55:37.036Z,95431.56
2023-06-20T17:58:05.028Z,95439.28
2023-06-20T18:00:33.043Z,95443.47
2023-06-20T18:03:01.504Z,95439.75
2023-06-20T18:05:30.008Z,95419.81
2023-06-20T18:07:58.588Z,95417.03
2023-06-20T18:10:28.145Z,95440.94
2023-06-20T18:13:00.259Z,95372.81
2023-06-20T18:15:28.476Z,95454.81
2023-06-20T18:17:56.450Z,95453.34
2023-06-20T18:20:24.697Z,95441.75
2023-06-20T18:22:53.365Z,95422.44
2023-06-20T18:25:21.409Z,95467.34
2023-06-20T18:27:50.648Z,95463.53
2023-06-20T18:30:20.029Z,95464.22
2023-06-20T18:32:48.176Z,95467.19
2023-06-20T18:35:17.696Z,95470.81
2023-06-20T18:37:45.803Z,95469.69
2023-06-20T18:40:14.365Z,95466.41
2023-06-20T18:42:42.395Z,95459.09
2023-06-20T18:45:11.678Z,95476.03
2023-06-20T18:47:41.733Z,95486.03
2023-06-20T18:50:11.099Z,95470.66
2023-06-20T18:52:40.240Z,95451.53
2023-06-20T18:55:09.282Z,95483.25
2023-06-20T18:57:37.304Z,95486.75
2023-06-20T19:00:07.376Z,95474.03
2023-06-20T19:02:35.519Z,95480.75
2023-06-20T19:05:05.556Z,95504.84
2023-06-20T19:07:33.570Z,95508.63
2023-06-20T19:10:01.677Z,95511.25
2023-06-20T19:12:29.718Z,95496.84
2023-06-20T19:14:57.783Z,95513.53
2023-06-20T19:17:27.795Z,95515.75
2023-06-20T19:19:56.107Z,95513.13
2023-06-20T19:22:25.581Z,95529.69
2023-06-20T19:24:53.573Z,95491.31
2023-06-20T19:27:21.558Z,95528.00
2023-06-20T19:29:49.609Z,95529.50
2023-06-20T19:32:17.641Z,95492.00
2023-06-20T19:34:46.690Z,95531.28
2023-06-20T19:37:16.519Z,95517.13
2023-06-20T19:39:46.262Z,95484.97
2023-06-20T19:42:14.235Z,95532.94
2023-06-20T19:44:42.385Z,95531.50
2023-06-20T19:47:10.456Z,95525.19
2023-06-20T19:49:38.890Z,95521.28
2023-06-20T19:52:07.997Z,95527.22
2023-06-20T19:54:36.029Z,95524.50
2023-06-20T19:57:07.729Z,95527.69
2023-06-20T19:59:35.843Z,95532.38
2023-06-20T20:02:04.280Z,95536.25
2023-06-20T20:04:32.334Z,95543.41
2023-06-20T20:07:02.967Z,95527.13
2023-06-20T20:09:31.489Z,95530.81
2023-06-20T20:11:59.564Z,95534.31
2023-06-20T20:14:29.027Z,95529.50
2023-06-20T20:16:58.308Z,95524.72
2023-06-20T20:19:26.353Z,95535.88
2023-06-20T20:21:54.388Z,95534.72
2023-06-20T20:24:22.705Z,95512.44
2023-06-20T20:26:53.767Z,95531.25
2023-06-20T20:29:21.945Z,95527.81
2023-06-20T20:31:51.566Z,95531.47
2023-06-20T20:34:19.884Z,95525.22
2023-06-20T20:36:47.970Z,95540.31
2023-06-20T20:39:16.020Z,95534.84
2023-06-20T20:41:44.177Z,95535.72
2023-06-20T20:44:12.660Z,95539.78
2023-06-20T20:46:40.723Z,95533.53
2023-06-20T20:49:10.181Z,95535.44
2023-06-20T20:51:38.205Z,95530.44
2023-06-20T20:54:06.362Z,95542.66
2023-06-20T20:56:34.364Z,95545.44
2023-06-20T20:59:02.384Z,95543.13
2023-06-20T21:01:30.439Z,95522.44
2023-06-20T21:03:58.695Z,95513.97
2023-06-20T21:06:28.267Z,95522.63
2023-06-20T21:08:56.207Z,95537.50
2023-06-20T21:11:24.287Z,95528.94
2023-06-20T21:13:52.259Z,95541.50
2023-06-20T21:16:20.331Z,95514.09
2023-06-20T21:18:48.349Z,95523.59
2023-06-20T21:21:16.535Z,95538.84
2023-06-20T21:23:46.004Z,95527.13
2023-06-20T21:26:14.138Z,95520.06
2023-06-20T21:28:42.159Z,95534.56
2023-06-20T21:31:10.241Z,95518.09
2023-06-20T21:33:38.448Z,95514.56
2023-06-20T21:36:07.057Z,95461.72
2023-06-20T21:38:35.166Z,95527.94
2023-06-20T21:41:04.590Z,95526.81
2023-06-20T21:43:35.207Z,95518.22
2023-06-20T21:46:03.456Z,95486.13
2023-06-20T21:48:32.213Z,95530.28
2023-06-20T21:51:00.272Z,95532.94
2023-06-20T21:53:29.378Z,95535.56
2023-06-20T21:55:57.548Z,95525.03
2023-06-20T21:58:27.008Z,95531.28
2023-06-20T22:00:55.148Z,95522.72
2023-06-20T22:03:23.372Z,95526.69
2023-06-20T22:05:51.557Z,95529.84
2023-06-20T22:08:20.687Z,95495.03
2023-06-20T22:10:58.824Z,95531.06
2023-06-20T22:13:29.516Z,95531.44
2023-06-20T22:15:57.878Z,95538.50
2023-06-20T22:18:26.243Z,95526.38
2023-06-20T22:20:55.893Z,95520.53
2023-06-20T22:23:26.330Z,95528.41
2023-06-20T22:25:55.573Z,95526.03
2023-06-20T22:28:23.803Z,95529.19
2023-06-20T22:30:54.242Z,95507.56
2023-06-20T22:33:22.294Z,95464.94
2023-06-20T22:35:50.315Z,95474.72
2023-06-20T22:38:18.554Z,95513.47
2023-06-20T22:40:47.598Z,95516.28
2023-06-20T22:43:16.233Z,95489.63
2023-06-20T22:45:44.871Z,95505.69
2023-06-20T22:48:17.120Z,95514.72
2023-06-20T22:50:45.884Z,95518.22
2023-06-20T22:53:16.404Z,95517.84
2023-06-20T22:55:44.564Z,95500.19
2023-06-20T22:58:12.881Z,95527.63
2023-06-20T23:00:40.916Z,95500.97
2023-06-20T23:03:09.114Z,95531.94
2023-06-20T23:05:38.624Z,95533.13
2023-06-20T23:08:06.691Z,95530.00
2023-06-20T23:10:34.891Z,95468.47
2023-06-20T23:13:02.923Z,95527.59
2023-06-20T23:15:31.058Z,95519.75
2023-06-20T23:17:59.178Z,95505.69
2023-06-20T23:20:27.358Z,95502.16
2023-06-20T23:22:58.823Z,95522.16
2023-06-20T23:25:38.125Z,95515.50
2023-06-20T23:28:06.288Z,95510.34
2023-06-20T23:30:34.385Z,95509.59
2023-06-20T23:33:02.621Z,95508.03
2023-06-20T23:35:31.469Z,95508.03
2023-06-20T23:38:00.859Z,95513.53
2023-06-20T23:40:29.199Z,95511.97
2023-06-20T23:42:58.013Z,95512.38
2023-06-20T23:45:26.296Z,95518.63
2023-06-20T23:47:55.190Z,95505.69
2023-06-20T23:50:23.439Z,95511.16
2023-06-20T23:52:53.755Z,95510.78
2023-06-20T23:55:23.389Z,95508.03
2023-06-20T23:57:51.546Z,95497.03
